createdAt,value
2018-10-05T00:02:37.386Z,1.80
2018-10-05T00:05:37.066Z,1.83
2018-10-05T00:08:36.472Z,1.50
2018-10-05T00:11:36.332Z,1.57
2018-10-05T00:14:36.096Z,1.70
2018-10-05T00:17:35.220Z,1.60
2018-10-05T00:20:35.556Z,1.43
2018-10-05T00:23:34.740Z,1.60
2018-10-05T00:26:33.536Z,1.60
2018-10-05T00:29:32.982Z,1.57
2018-10-05T00:32:32.139Z,1.60
2018-10-05T00:35:32.533Z,1.50
2018-10-05T00:38:32.677Z,1.47
2018-10-05T00:41:30.558Z,1.60
2018-10-05T00:44:31.000Z,1.67
2018-10-05T00:47:30.675Z,1.40
2018-10-05T00:50:30.069Z,1.57
2018-10-05T00:53:29.578Z,1.67
2018-10-05T00:56:29.762Z,1.77
2018-10-05T00:59:29.871Z,1.37
2018-10-05T01:02:27.848Z,1.40
2018-10-05T01:05:27.135Z,1.60
2018-10-05T01:08:26.030Z,1.87
2018-10-05T01:11:26.009Z,1.70
2018-10-05T01:14:25.052Z,1.40
2018-10-05T01:17:24.865Z,1.53
2018-10-05T01:20:25.085Z,1.57
2018-10-05T01:23:23.883Z,1.40
2018-10-05T01:26:23.022Z,1.33
2018-10-05T01:29:23.660Z,1.50
2018-10-05T01:32:23.321Z,1.43
2018-10-05T01:35:22.571Z,1.63
2018-10-05T01:38:21.957Z,1.60
2018-10-05T01:41:20.698Z,1.40
2018-10-05T01:44:19.476Z,1.53
2018-10-05T01:47:18.513Z,1.47
2018-10-05T01:50:18.608Z,1.43
2018-10-05T01:53:17.794Z,1.60
2018-10-05T01:56:17.514Z,1.40
2018-10-05T01:59:16.850Z,1.30
2018-10-05T02:02:17.016Z,1.60
2018-10-05T02:05:16.704Z,1.37
2018-10-05T02:08:16.412Z,1.40
2018-10-05T02:11:14.046Z,1.33
2018-10-05T02:14:12.952Z,1.37
2018-10-05T02:17:11.796Z,1.70
2018-10-05T02:20:11.869Z,1.47
2018-10-05T02:23:11.920Z,1.40
2018-10-05T02:26:11.709Z,1.40
2018-10-05T02:29:11.041Z,1.50
2018-10-05T02:32:11.494Z,1.67
2018-10-05T02:35:11.710Z,1.73
2018-10-05T02:41:20.360Z,1.30
2018-10-05T02:44:19.664Z,1.27
2018-10-05T02:47:19.962Z,1.50
2018-10-05T02:50:19.296Z,1.60
2018-10-05T02:53:19.290Z,1.67
2018-10-05T02:56:18.808Z,1.60
2018-10-05T02:59:18.462Z,1.30
2018-10-05T03:02:23.820Z,1.27
2018-10-05T03:05:22.386Z,1.50
2018-10-05T03:08:21.700Z,1.40
2018-10-05T03:11:22.493Z,1.30
2018-10-05T03:14:22.029Z,1.40
2018-10-05T03:17:25.961Z,1.33
2018-10-05T03:20:25.615Z,1.30
2018-10-05T03:23:26.046Z,1.40
2018-10-05T03:26:25.163Z,1.40
2018-10-05T03:29:24.000Z,1.40
2018-10-05T03:32:23.436Z,1.50
2018-10-05T03:35:22.900Z,1.50
2018-10-05T03:38:23.364Z,1.50
2018-10-05T03:41:23.706Z,1.37
2018-10-05T03:44:22.930Z,1.20
2018-10-05T03:47:23.390Z,1.27
2018-10-05T03:50:23.520Z,1.40
2018-10-05T03:53:24.012Z,1.30
2018-10-05T03:56:23.664Z,1.30
2018-10-05T03:59:24.189Z,1.37
2018-10-05T04:02:23.948Z,1.40
2018-10-05T04:05:23.604Z,1.60
2018-10-05T04:08:22.450Z,1.37
2018-10-05T04:11:23.251Z,1.33
2018-10-05T04:14:21.876Z,1.33
2018-10-05T04:17:22.000Z,1.30
2018-10-05T04:20:20.512Z,1.40
2018-10-05T04:23:19.995Z,1.40
2018-10-05T04:26:19.652Z,1.40
2018-10-05T04:29:20.073Z,1.50
2018-10-05T04:32:19.100Z,1.40
2018-10-05T04:35:19.725Z,1.40
2018-10-05T04:38:19.020Z,1.47
2018-10-05T04:41:18.500Z,1.30
2018-10-05T04:44:20.608Z,1.37
2018-10-05T04:47:19.570Z,1.27
2018-10-05T04:50:19.916Z,1.20
2018-10-05T04:53:19.224Z,1.67
2018-10-05T04:56:20.109Z,1.60
2018-10-05T04:59:19.197Z,1.50
2018-10-05T05:02:18.216Z,1.33
2018-10-05T05:05:18.341Z,1.50
2018-10-05T05:08:17.780Z,1.30
2018-10-05T05:11:17.427Z,1.20
2018-10-05T05:14:17.193Z,1.40
2018-10-05T05:17:16.085Z,1.37
2018-10-05T05:20:16.344Z,1.50
2018-10-05T05:23:16.991Z,1.37
2018-10-05T05:26:17.589Z,1.60
2018-10-05T05:29:17.825Z,1.43
2018-10-05T05:32:17.915Z,1.50
2018-10-05T05:35:17.270Z,1.40
2018-10-05T05:38:17.289Z,1.60
2018-10-05T05:41:18.093Z,1.40
2018-10-05T05:44:54.992Z,1.50
2018-10-05T05:47:53.687Z,1.23
2018-10-05T05:50:53.632Z,1.47
2018-10-05T05:53:52.507Z,1.70
2018-10-05T05:56:51.925Z,1.30
2018-10-05T05:59:48.976Z,1.50
2018-10-05T06:02:49.320Z,1.40
2018-10-05T06:05:49.589Z,1.57
2018-10-05T06:08:49.899Z,1.50
2018-10-05T06:11:48.969Z,1.30
2018-10-05T06:14:48.208Z,1.53
2018-10-05T06:17:48.600Z,1.40
2018-10-05T06:20:47.411Z,1.50
2018-10-05T06:23:47.275Z,1.40
2018-10-05T06:26:49.340Z,1.33
2018-10-05T06:29:49.068Z,1.37
2018-10-05T06:32:48.215Z,1.20
2018-10-05T06:35:47.884Z,1.27
2018-10-05T06:38:47.326Z,1.30
2018-10-05T06:41:48.233Z,1.60
2018-10-05T06:44:47.071Z,1.50
2018-10-05T06:47:45.988Z,1.50
2018-10-05T06:50:45.869Z,1.40
2018-10-05T06:53:46.181Z,1.40
2018-10-05T06:56:46.897Z,1.20
2018-10-05T06:59:46.958Z,1.27
2018-10-05T07:02:46.695Z,1.30
2018-10-05T07:05:47.777Z,1.17
2018-10-05T07:08:47.611Z,1.50
2018-10-05T07:11:48.155Z,1.27
2018-10-05T07:14:47.363Z,1.40
2018-10-05T07:17:47.105Z,1.50
2018-10-05T07:20:47.542Z,1.60
2018-10-05T07:23:46.364Z,1.30
2018-10-05T07:26:45.275Z,1.47
2018-10-05T07:29:44.191Z,1.63
2018-10-05T07:32:43.353Z,1.50
2018-10-05T07:35:43.645Z,1.40
2018-10-05T07:38:44.869Z,1.60
2018-10-05T07:41:44.386Z,1.37
2018-10-05T07:44:44.584Z,1.40
2018-10-05T07:47:43.127Z,1.40
2018-10-05T07:50:43.264Z,1.17
2018-10-05T07:53:42.381Z,1.40
2018-10-05T07:56:41.172Z,1.40
2018-10-05T07:59:41.004Z,1.27
2018-10-05T08:02:40.744Z,1.60
2018-10-05T08:05:43.226Z,1.60
2018-10-05T08:08:42.928Z,1.33
2018-10-05T08:11:43.476Z,1.33
2018-10-05T08:14:44.581Z,1.60
2018-10-05T08:17:43.760Z,1.30
2018-10-05T08:20:43.397Z,1.30
2018-10-05T08:23:44.604Z,1.40
2018-10-05T08:26:44.293Z,1.40
2018-10-05T08:29:42.872Z,1.50
2018-10-05T08:32:43.805Z,1.60
2018-10-05T08:35:42.879Z,1.50
2018-10-05T08:38:42.127Z,1.20
2018-10-05T08:41:41.515Z,1.30
2018-10-05T08:44:42.653Z,1.10
2018-10-05T08:47:42.283Z,1.37
2018-10-05T08:50:41.739Z,1.40
2018-10-05T08:53:40.850Z,1.20
2018-10-05T08:56:40.097Z,1.33
2018-10-05T08:59:39.655Z,1.40
2018-10-05T09:02:40.424Z,1.50
2018-10-05T09:05:39.508Z,1.10
2018-10-05T09:08:38.897Z,1.30
2018-10-05T09:11:37.280Z,1.37
2018-10-05T09:14:37.017Z,1.30
2018-10-05T09:17:36.047Z,1.50
2018-10-05T09:20:35.873Z,1.30
2018-10-05T09:23:35.709Z,1.03
2018-10-05T09:26:34.889Z,1.47
2018-10-05T09:29:34.495Z,1.40
2018-10-05T09:32:34.716Z,1.50
2018-10-05T09:35:34.440Z,1.23
2018-10-05T09:38:34.791Z,1.30
2018-10-05T09:41:33.289Z,1.47
2018-10-05T09:44:33.339Z,1.30
2018-10-05T09:47:32.776Z,1.70
2018-10-05T09:50:32.211Z,1.47
2018-10-05T09:53:31.801Z,1.60
2018-10-05T09:56:32.701Z,1.23
2018-10-05T09:59:32.774Z,1.57
2018-10-05T10:02:37.669Z,1.37
2018-10-05T10:05:37.339Z,1.40
2018-10-05T10:08:36.387Z,1.60
2018-10-05T10:11:36.053Z,1.37
2018-10-05T10:14:36.467Z,1.90
2018-10-05T10:17:36.475Z,1.80
2018-10-05T10:20:36.650Z,1.83
2018-10-05T10:23:37.665Z,1.90
2018-10-05T10:26:37.108Z,1.70
2018-10-05T10:29:37.129Z,1.90
2018-10-05T10:32:38.878Z,1.50
2018-10-05T10:35:37.536Z,1.63
2018-10-05T10:38:36.871Z,1.90
2018-10-05T10:41:36.064Z,1.50
2018-10-05T10:44:35.497Z,1.80
2018-10-05T10:47:34.224Z,1.60
2018-10-05T10:50:34.273Z,1.70
2018-10-05T10:53:33.031Z,1.50
2018-10-05T10:56:31.985Z,1.50
2018-10-05T10:59:33.408Z,1.70
2018-10-05T11:02:33.113Z,1.40
2018-10-05T11:05:33.478Z,1.40
2018-10-05T11:08:32.755Z,1.50
2018-10-05T11:11:31.053Z,1.37
2018-10-05T11:14:30.337Z,1.40
2018-10-05T11:17:31.251Z,1.40
2018-10-05T11:20:31.286Z,1.67
2018-10-05T11:23:30.973Z,1.10
2018-10-05T11:26:30.473Z,1.40
2018-10-05T11:29:30.513Z,1.40
2018-10-05T11:32:29.766Z,1.50
2018-10-05T11:35:29.001Z,1.20
2018-10-05T11:38:30.497Z,1.30
2018-10-05T11:41:29.398Z,1.20
2018-10-05T11:44:28.178Z,1.20
2018-10-05T11:47:28.254Z,1.30
2018-10-05T11:50:29.090Z,1.33
2018-10-05T11:53:28.339Z,1.20
2018-10-05T11:56:28.277Z,1.33
2018-10-05T11:59:27.868Z,1.17
2018-10-05T12:02:27.765Z,1.00
2018-10-05T12:05:26.230Z,1.30
2018-10-05T12:08:26.282Z,1.10
2018-10-05T12:11:25.568Z,1.00
2018-10-05T12:14:25.399Z,1.20
2018-10-05T12:17:24.764Z,1.20
2018-10-05T12:20:24.556Z,1.10
2018-10-05T12:23:23.698Z,0.90
2018-10-05T12:26:23.728Z,1.20
2018-10-05T12:29:22.718Z,1.33
2018-10-05T12:32:22.990Z,0.90
2018-10-05T12:35:22.571Z,0.83
2018-10-05T12:38:23.103Z,1.10
2018-10-05T12:41:23.266Z,1.20
2018-10-05T12:44:23.055Z,0.97
2018-10-05T12:47:23.068Z,1.10
2018-10-05T12:50:23.301Z,1.00
2018-10-05T12:53:23.496Z,0.90
2018-10-05T12:56:22.035Z,0.70
2018-10-05T12:59:21.607Z,1.00
2018-10-05T13:02:22.368Z,1.00
2018-10-05T13:05:21.739Z,1.00
2018-10-05T13:08:19.786Z,1.27
2018-10-05T13:11:19.912Z,0.90
2018-10-05T13:14:18.811Z,0.90
2018-10-05T13:17:17.578Z,0.90
2018-10-05T13:20:17.127Z,1.10
2018-10-05T13:23:16.370Z,1.20
2018-10-05T13:26:16.058Z,0.90
2018-10-05T13:29:16.962Z,1.20
2018-10-05T13:32:16.638Z,1.00
2018-10-05T13:35:16.484Z,0.97
2018-10-05T13:38:16.055Z,1.10
2018-10-05T13:41:14.638Z,0.83
2018-10-05T13:44:13.500Z,1.07
2018-10-05T13:47:13.343Z,1.07
2018-10-05T13:50:12.312Z,1.20
2018-10-05T13:53:12.292Z,1.07
2018-10-05T13:56:12.704Z,1.23
2018-10-05T13:59:12.318Z,1.13
2018-10-05T14:02:12.990Z,0.80
2018-10-05T14:05:15.108Z,1.13
2018-10-05T14:08:15.265Z,1.10
2018-10-05T14:11:14.164Z,0.80
2018-10-05T14:14:14.470Z,0.80
2018-10-05T14:17:13.788Z,1.10
2018-10-05T14:20:14.524Z,0.90
2018-10-05T14:23:14.292Z,0.90
2018-10-05T14:26:13.294Z,1.03
2018-10-05T14:29:12.856Z,1.00
2018-10-05T14:32:12.976Z,1.00
2018-10-05T14:35:11.218Z,1.00
2018-10-05T14:38:10.665Z,0.97
2018-10-05T14:41:10.618Z,1.00
2018-10-05T14:44:08.906Z,0.90
2018-10-05T14:47:09.529Z,0.60
2018-10-05T14:50:08.889Z,0.80
2018-10-05T14:53:09.178Z,0.90
2018-10-05T14:56:08.972Z,0.80
2018-10-05T14:59:08.307Z,0.73
2018-10-05T15:02:07.970Z,1.00
2018-10-05T15:05:07.388Z,0.97
2018-10-05T15:08:07.240Z,1.00
2018-10-05T15:11:07.101Z,1.10
2018-10-05T15:14:06.134Z,1.30
2018-10-05T15:17:06.758Z,0.90
2018-10-05T15:20:05.770Z,1.30
2018-10-05T15:23:04.754Z,1.33
2018-10-05T15:26:05.964Z,1.13
2018-10-05T15:29:05.036Z,1.10
2018-10-05T15:32:05.968Z,0.87
2018-10-05T15:35:04.692Z,1.10
2018-10-05T15:38:05.439Z,1.07
2018-10-05T15:41:04.343Z,1.40
2018-10-05T15:44:05.406Z,1.10
2018-10-05T15:47:23.314Z,0.93
2018-10-05T15:50:22.502Z,1.10
2018-10-05T15:53:22.036Z,0.90
2018-10-05T15:56:21.070Z,1.00
2018-10-05T15:59:20.876Z,1.00
2018-10-05T16:02:20.331Z,1.10
2018-10-05T16:05:18.712Z,1.20
2018-10-05T16:08:17.482Z,1.00
2018-10-05T16:11:17.716Z,1.10
2018-10-05T16:14:17.570Z,1.07
2018-10-05T16:17:16.314Z,1.17
2018-10-05T16:20:15.146Z,1.07
2018-10-05T16:23:15.936Z,1.10
2018-10-05T16:26:16.678Z,1.20
2018-10-05T16:29:16.119Z,1.13
2018-10-05T16:32:16.647Z,1.07
2018-10-05T16:35:16.108Z,1.13
2018-10-05T16:38:14.972Z,1.10
2018-10-05T16:41:14.421Z,1.23
2018-10-05T16:44:14.160Z,1.00
2018-10-05T16:47:14.133Z,1.20
2018-10-05T16:50:13.839Z,1.10
2018-10-05T16:53:13.182Z,1.00
2018-10-05T16:56:12.892Z,1.30
2018-10-05T16:59:13.799Z,1.07
2018-10-05T17:02:14.013Z,1.03
2018-10-05T17:05:13.508Z,0.97
2018-10-05T17:08:12.974Z,1.00
2018-10-05T17:11:13.662Z,0.93
2018-10-05T17:14:11.978Z,1.10
2018-10-05T17:17:10.803Z,1.07
2018-10-05T17:20:10.918Z,1.00
2018-10-05T17:23:10.476Z,0.97
2018-10-05T17:26:09.054Z,1.27
2018-10-05T17:29:08.613Z,1.13
2018-10-05T17:32:07.932Z,1.00
2018-10-05T17:35:07.846Z,1.20
2018-10-05T17:38:06.887Z,1.37
2018-10-05T17:41:04.848Z,1.20
2018-10-05T17:44:06.324Z,0.90
2018-10-05T17:47:06.096Z,1.00
2018-10-05T17:50:07.152Z,1.00
2018-10-05T17:53:06.238Z,1.07
2018-10-05T17:56:04.986Z,1.10
2018-10-05T17:59:05.055Z,1.10
2018-10-05T18:02:04.244Z,1.00
2018-10-05T18:05:03.311Z,1.37
2018-10-05T18:08:03.377Z,1.10
2018-10-05T18:11:02.404Z,1.03
2018-10-05T18:14:02.931Z,1.30
2018-10-05T18:17:02.044Z,1.10
2018-10-05T18:20:01.356Z,1.20
2018-10-05T18:23:01.407Z,1.10
2018-10-05T18:26:01.124Z,1.10
2018-10-05T18:29:01.108Z,1.20
2018-10-05T18:32:00.427Z,1.30
2018-10-05T18:34:59.185Z,1.20
2018-10-05T18:37:58.832Z,1.20
2018-10-05T18:40:58.098Z,1.40
2018-10-05T18:43:58.102Z,1.40
2018-10-05T18:46:57.823Z,1.37
2018-10-05T18:49:57.564Z,1.40
2018-10-05T18:52:57.828Z,1.50
2018-10-05T18:55:57.244Z,1.37
2018-10-05T18:58:57.102Z,1.20
2018-10-05T19:01:56.756Z,1.40
2018-10-05T19:04:56.303Z,1.40
2018-10-05T19:07:55.468Z,1.40
2018-10-05T19:10:54.216Z,1.40
2018-10-05T19:13:53.248Z,1.47
2018-10-05T19:16:51.712Z,1.50
2018-10-05T19:19:50.973Z,1.43
2018-10-05T19:22:50.037Z,1.47
2018-10-05T19:25:51.307Z,1.50
2018-10-05T19:28:50.657Z,1.43
2018-10-05T19:31:50.122Z,1.60
2018-10-05T19:34:49.433Z,1.60
2018-10-05T19:37:48.849Z,1.47
2018-10-05T19:40:48.643Z,1.63
2018-10-05T19:43:47.426Z,1.50
2018-10-05T19:46:47.370Z,1.37
2018-10-05T19:49:46.828Z,1.47
2018-10-05T19:52:46.552Z,1.50
2018-10-05T19:55:45.899Z,1.53
2018-10-05T19:58:45.075Z,1.70
2018-10-05T20:01:43.696Z,1.40
2018-10-05T20:04:43.340Z,1.70
2018-10-05T20:07:44.189Z,1.90
2018-10-05T20:10:44.210Z,1.70
2018-10-05T20:13:43.847Z,1.57
2018-10-05T20:16:42.925Z,1.57
2018-10-05T20:19:42.056Z,1.60
2018-10-05T20:22:41.957Z,1.63
2018-10-05T20:25:41.273Z,1.83
2018-10-05T20:28:38.363Z,1.77
2018-10-05T20:31:35.984Z,1.60
2018-10-05T20:34:35.101Z,1.60
2018-10-05T20:37:35.589Z,1.97
2018-10-05T20:40:34.122Z,1.80
2018-10-05T20:43:33.873Z,1.80
2018-10-05T20:46:33.311Z,1.60
2018-10-05T20:49:33.475Z,1.70
2018-10-05T20:52:33.227Z,1.90
2018-10-05T20:55:32.227Z,2.17
2018-10-05T20:58:31.517Z,1.80
2018-10-05T21:01:30.759Z,2.07
2018-10-05T21:04:30.141Z,2.20
2018-10-05T21:07:30.108Z,2.17
2018-10-05T21:10:30.536Z,1.90
2018-10-05T21:13:32.457Z,2.00
2018-10-05T21:16:32.059Z,1.77
2018-10-05T21:19:31.596Z,2.00
2018-10-05T21:22:31.776Z,1.90
2018-10-05T21:25:31.526Z,2.10
2018-10-05T21:28:30.405Z,1.77
2018-10-05T21:31:29.881Z,1.93
2018-10-05T21:34:29.271Z,2.20
2018-10-05T21:37:28.499Z,2.00
2018-10-05T21:40:27.212Z,2.20
2018-10-05T21:43:26.325Z,1.90
2018-10-05T21:46:25.648Z,2.10
2018-10-05T21:49:25.483Z,2.10
2018-10-05T21:52:25.188Z,1.93
2018-10-05T21:55:24.527Z,2.40
2018-10-05T21:58:25.160Z,2.00
2018-10-05T22:01:23.739Z,2.00
2018-10-05T22:04:23.479Z,2.00
2018-10-05T22:07:23.133Z,1.90
2018-10-05T22:10:23.277Z,1.90
2018-10-05T22:13:23.142Z,1.83
2018-10-05T22:16:23.880Z,1.73
2018-10-05T22:19:21.968Z,1.63
2018-10-05T22:22:21.497Z,1.80
2018-10-05T22:25:20.988Z,1.80
2018-10-05T22:28:20.457Z,1.90
2018-10-05T22:31:19.243Z,1.80
2018-10-05T22:34:20.271Z,1.70
2018-10-05T22:37:20.689Z,1.60
2018-10-05T22:40:20.053Z,1.83
2018-10-05T22:43:20.463Z,1.87
2018-10-05T22:46:20.595Z,1.87
2018-10-05T22:49:19.690Z,1.80
2018-10-05T22:52:19.048Z,1.77
2018-10-05T22:55:17.797Z,2.00
2018-10-05T22:58:16.971Z,1.90
2018-10-05T23:01:16.475Z,1.67
2018-10-05T23:04:16.515Z,2.00
2018-10-05T23:07:16.029Z,2.13
2018-10-05T23:10:16.581Z,1.63
2018-10-05T23:13:16.251Z,1.90
2018-10-05T23:16:15.333Z,1.90
2018-10-05T23:19:14.432Z,1.93
2018-10-05T23:22:13.791Z,2.00
2018-10-05T23:25:13.289Z,1.90
2018-10-05T23:28:13.531Z,2.10
2018-10-05T23:31:12.831Z,1.90
2018-10-05T23:34:12.971Z,1.77
2018-10-05T23:37:11.663Z,2.00
2018-10-05T23:40:11.101Z,1.90
2018-10-05T23:43:11.681Z,2.10
2018-10-05T23:46:11.895Z,2.13
2018-10-05T23:49:10.683Z,2.10
2018-10-05T23:52:10.313Z,1.77
2018-10-05T23:55:09.746Z,2.00
2018-10-05T23:58:09.016Z,2.10
